createdAt,value
2023-01-31T00:00:55.092Z,4.37
2023-01-31T00:05:56.502Z,4.41
2023-01-31T00:10:59.333Z,4.41
2023-01-31T00:16:01.058Z,4.46
2023-01-31T00:21:11.193Z,4.44
2023-01-31T00:26:20.730Z,4.47
2023-01-31T00:31:24.641Z,4.43
2023-01-31T00:36:28.700Z,4.36
2023-01-31T00:41:30.717Z,4.27
2023-01-31T00:46:32.185Z,4.20
2023-01-31T00:51:33.686Z,4.15
2023-01-31T00:56:36.004Z,4.16
2023-01-31T01:01:38.201Z,4.09
2023-01-31T01:06:41.616Z,3.93
2023-01-31T01:11:43.146Z,3.79
2023-01-31T01:16:44.873Z,3.72
2023-01-31T01:21:46.494Z,3.67
2023-01-31T01:26:48.121Z,3.61
2023-01-31T01:31:49.743Z,3.60
2023-01-31T01:36:51.202Z,3.56
2023-01-31T01:41:52.721Z,3.47
2023-01-31T01:46:54.172Z,3.38
2023-01-31T01:51:58.269Z,3.35
2023-01-31T01:57:03.442Z,3.27
2023-01-31T02:02:05.132Z,3.19
2023-01-31T02:07:09.062Z,3.18
2023-01-31T02:12:12.024Z,3.21
2023-01-31T02:17:15.295Z,3.28
2023-01-31T02:22:32.499Z,3.32
2023-01-31T02:28:01.934Z,3.35
2023-01-31T02:33:12.954Z,3.38
2023-01-31T02:38:24.810Z,3.38
2023-01-31T02:44:04.227Z,3.42
2023-01-31T02:49:34.669Z,3.45
2023-01-31T02:54:57.374Z,3.49
2023-01-31T02:59:59.076Z,3.49
2023-01-31T03:05:00.450Z,3.51
2023-01-31T03:10:27.288Z,3.47
2023-01-31T03:15:56.660Z,3.47
2023-01-31T03:21:05.304Z,3.49
2023-01-31T03:26:07.732Z,3.52
2023-01-31T03:31:20.832Z,3.56
2023-01-31T03:36:36.824Z,3.59
2023-01-31T03:41:56.933Z,3.60
2023-01-31T03:47:12.371Z,3.61
2023-01-31T03:52:18.498Z,3.53
2023-01-31T03:57:28.511Z,3.50
2023-01-31T04:02:35.389Z,3.50
2023-01-31T04:07:37.698Z,3.45
2023-01-31T04:12:39.387Z,3.44
2023-01-31T04:17:40.851Z,3.34
2023-01-31T04:22:42.396Z,3.34
2023-01-31T04:27:43.793Z,3.27
2023-01-31T04:32:45.159Z,3.20
2023-01-31T04:37:46.575Z,3.07
2023-01-31T04:42:50.855Z,2.96
2023-01-31T04:47:52.269Z,2.83
2023-01-31T04:52:53.719Z,2.73
2023-01-31T04:57:55.134Z,2.66
2023-01-31T05:02:56.568Z,2.58
2023-01-31T05:07:58.018Z,2.51
2023-01-31T05:12:59.493Z,2.44
2023-01-31T05:18:04.502Z,2.38
2023-01-31T05:23:06.950Z,2.35
2023-01-31T05:28:08.362Z,2.43
2023-01-31T05:33:10.014Z,2.60
2023-01-31T05:38:11.479Z,2.76
2023-01-31T05:43:13.005Z,2.85
2023-01-31T05:48:14.441Z,2.92
2023-01-31T05:53:15.877Z,2.93
2023-01-31T05:58:17.331Z,2.97
2023-01-31T06:03:18.912Z,3.00
2023-01-31T06:08:20.392Z,3.03
2023-01-31T06:13:21.825Z,3.05
2023-01-31T06:18:23.718Z,3.18
2023-01-31T06:23:25.150Z,3.21
2023-01-31T06:28:26.650Z,3.26
2023-01-31T06:33:42.258Z,3.34
2023-01-31T06:38:52.072Z,3.24
2023-01-31T06:43:53.687Z,3.22
2023-01-31T06:48:55.713Z,3.31
2023-01-31T06:53:57.424Z,3.37
2023-01-31T06:58:58.938Z,3.36
2023-01-31T07:04:00.464Z,3.31
2023-01-31T07:09:02.065Z,3.17
2023-01-31T07:14:03.569Z,3.12
2023-01-31T07:19:05.173Z,3.10
2023-01-31T07:24:07.314Z,3.07
2023-01-31T07:29:09.070Z,3.02
2023-01-31T07:34:10.579Z,3.04
2023-01-31T07:39:13.411Z,3.00
2023-01-31T07:44:15.005Z,3.13
2023-01-31T07:49:17.767Z,3.26
2023-01-31T07:54:19.261Z,3.26
2023-01-31T07:59:20.718Z,3.29
2023-01-31T08:04:22.967Z,3.18
2023-01-31T08:09:25.201Z,3.08
2023-01-31T08:14:28.345Z,2.92
2023-01-31T08:19:30.582Z,3.11
2023-01-31T08:24:32.887Z,3.29
2023-01-31T08:29:34.432Z,3.25
2023-01-31T08:34:35.913Z,3.15
2023-01-31T08:39:37.428Z,3.37
2023-01-31T08:44:39.044Z,3.69
2023-01-31T08:49:40.653Z,3.84
2023-01-31T08:54:42.186Z,3.88
2023-01-31T08:59:43.654Z,4.11
2023-01-31T09:04:45.756Z,4.37
2023-01-31T09:09:50.209Z,4.55
2023-01-31T09:14:52.058Z,4.36
2023-01-31T09:19:53.584Z,4.54
2023-01-31T09:24:55.208Z,4.63
2023-01-31T09:29:56.803Z,4.60
2023-01-31T09:34:58.916Z,4.61
2023-01-31T09:40:00.419Z,4.62
2023-01-31T09:45:07.823Z,4.60
2023-01-31T09:50:22.604Z,4.63
2023-01-31T09:55:44.887Z,4.73
2023-01-31T10:00:55.580Z,5.03
2023-01-31T10:06:09.024Z,5.45
2023-01-31T10:11:16.526Z,5.42
2023-01-31T10:16:23.268Z,5.14
2023-01-31T10:21:32.790Z,5.21
2023-01-31T10:26:39.365Z,5.52
2023-01-31T10:32:04.840Z,5.73
2023-01-31T10:37:16.397Z,5.56
2023-01-31T10:42:33.289Z,5.56
2023-01-31T10:47:48.671Z,5.72
2023-01-31T10:53:13.621Z,6.00
2023-01-31T10:58:19.537Z,6.64
2023-01-31T11:03:21.628Z,6.65
2023-01-31T11:08:36.571Z,6.59
2023-01-31T11:13:39.513Z,6.54
2023-01-31T11:18:47.512Z,6.76
2023-01-31T11:23:49.800Z,6.69
2023-01-31T11:28:53.220Z,6.61
2023-01-31T11:34:03.596Z,6.91
2023-01-31T11:39:23.347Z,6.90
2023-01-31T11:44:24.859Z,6.86
2023-01-31T11:49:29.134Z,6.64
2023-01-31T11:54:34.530Z,6.50
2023-01-31T11:59:36.080Z,6.08
2023-01-31T12:04:42.537Z,5.69
2023-01-31T12:09:44.686Z,5.72
2023-01-31T12:14:47.911Z,5.96
2023-01-31T12:20:27.939Z,6.06
2023-01-31T12:25:48.424Z,6.37
2023-01-31T12:31:18.927Z,6.36
2023-01-31T12:36:45.719Z,6.20
2023-01-31T12:42:13.895Z,6.02
2023-01-31T12:47:29.258Z,6.03
2023-01-31T12:53:05.515Z,6.09
2023-01-31T12:58:39.185Z,6.18
2023-01-31T13:04:25.409Z,6.17
2023-01-31T13:09:35.874Z,6.11
2023-01-31T13:14:52.077Z,6.18
2023-01-31T13:19:59.013Z,6.32
2023-01-31T13:25:13.633Z,6.30
2023-01-31T13:30:33.516Z,6.35
2023-01-31T13:35:41.018Z,6.28
2023-01-31T13:40:52.500Z,6.32
2023-01-31T13:46:02.902Z,6.33
2023-01-31T13:51:17.752Z,6.24
2023-01-31T13:56:26.747Z,6.31
2023-01-31T14:01:34.451Z,6.35
2023-01-31T14:07:08.322Z,6.33
2023-01-31T14:12:09.726Z,6.24
2023-01-31T14:17:14.416Z,6.15
2023-01-31T14:22:27.690Z,6.15
2023-01-31T14:27:31.419Z,6.28
2023-01-31T14:32:45.527Z,6.37
2023-01-31T14:37:58.931Z,6.42
2023-01-31T14:43:37.489Z,6.45
2023-01-31T14:48:57.903Z,6.47
2023-01-31T14:54:05.381Z,6.57
2023-01-31T14:59:32.990Z,6.58
2023-01-31T15:04:34.594Z,6.60
2023-01-31T15:09:39.027Z,6.59
2023-01-31T15:14:45.186Z,6.57
2023-01-31T15:19:52.281Z,6.58
2023-01-31T15:24:58.612Z,6.58
2023-01-31T15:30:06.796Z,6.52
2023-01-31T15:35:21.870Z,6.44
2023-01-31T15:40:25.470Z,6.35
2023-01-31T15:45:30.139Z,6.31
2023-01-31T15:50:33.716Z,6.25
2023-01-31T15:55:36.277Z,6.21
2023-01-31T16:00:38.554Z,6.20
2023-01-31T16:05:40.245Z,6.17
2023-01-31T16:10:44.238Z,6.17
2023-01-31T16:15:46.584Z,6.17
2023-01-31T16:20:51.119Z,6.21
2023-01-31T16:25:57.486Z,6.22
2023-01-31T16:31:08.885Z,6.25
2023-01-31T16:36:17.367Z,6.24
2023-01-31T16:41:42.682Z,6.29
2023-01-31T16:46:46.380Z,6.32
2023-01-31T16:51:49.168Z,6.31
2023-01-31T16:57:02.417Z,6.34
2023-01-31T17:02:24.280Z,6.29
2023-01-31T17:07:32.761Z,6.32
2023-01-31T17:12:38.591Z,6.30
2023-01-31T17:17:40.106Z,6.28
2023-01-31T17:22:45.610Z,6.30
2023-01-31T17:27:52.148Z,6.30
2023-01-31T17:32:53.674Z,6.35
2023-01-31T17:37:55.520Z,6.34
2023-01-31T17:42:59.354Z,6.35
2023-01-31T17:48:00.865Z,6.31
2023-01-31T17:53:02.341Z,6.32
2023-01-31T17:58:03.952Z,6.32
2023-01-31T18:03:05.948Z,6.30
2023-01-31T18:08:07.871Z,6.29
2023-01-31T18:13:10.055Z,6.33
2023-01-31T18:18:11.605Z,6.36
2023-01-31T18:23:14.554Z,6.34
2023-01-31T18:28:16.325Z,6.36
2023-01-31T18:33:18.065Z,6.39
2023-01-31T18:38:19.709Z,6.35
2023-01-31T18:43:21.564Z,6.34
2023-01-31T18:48:23.019Z,6.33
2023-01-31T18:53:24.548Z,6.34
2023-01-31T18:58:29.646Z,6.36
2023-01-31T19:03:31.102Z,6.32
2023-01-31T19:08:32.788Z,6.34
2023-01-31T19:13:34.793Z,6.35
2023-01-31T19:18:37.161Z,6.38
2023-01-31T19:23:38.849Z,6.37
2023-01-31T19:28:40.643Z,6.39
2023-01-31T19:33:42.383Z,6.36
2023-01-31T19:38:43.846Z,6.33
2023-01-31T19:43:46.128Z,6.25
2023-01-31T19:48:47.592Z,6.26
2023-01-31T19:53:49.661Z,6.27
2023-01-31T19:58:51.124Z,6.28
2023-01-31T20:03:54.037Z,6.29
2023-01-31T20:08:57.495Z,6.20
2023-01-31T20:14:00.151Z,6.16
2023-01-31T20:19:02.230Z,6.15
2023-01-31T20:24:03.943Z,6.09
2023-01-31T20:29:05.672Z,6.01
2023-01-31T20:34:07.171Z,6.01
2023-01-31T20:39:08.609Z,6.01
2023-01-31T20:44:10.082Z,5.99
2023-01-31T20:49:11.678Z,6.02
2023-01-31T20:54:14.247Z,6.00
2023-01-31T20:59:15.851Z,5.93
2023-01-31T21:04:17.926Z,5.85
2023-01-31T21:09:19.463Z,5.80
2023-01-31T21:14:20.926Z,5.81
2023-01-31T21:19:22.403Z,5.79
2023-01-31T21:24:23.906Z,5.77
2023-01-31T21:29:25.440Z,5.81
2023-01-31T21:34:27.856Z,5.81
2023-01-31T21:39:29.293Z,5.80
2023-01-31T21:44:30.877Z,5.83
2023-01-31T21:49:32.330Z,5.81
2023-01-31T21:54:34.134Z,5.84
2023-01-31T21:59:36.420Z,5.89
2023-01-31T22:04:37.860Z,5.88
2023-01-31T22:09:39.249Z,5.91
2023-01-31T22:14:40.648Z,5.92
2023-01-31T22:19:42.068Z,5.95
2023-01-31T22:24:44.050Z,5.93
2023-01-31T22:29:45.544Z,5.92
2023-01-31T22:34:46.935Z,5.91
2023-01-31T22:39:48.330Z,5.87
2023-01-31T22:44:49.808Z,5.88
2023-01-31T22:49:51.484Z,5.93
2023-01-31T22:54:52.914Z,5.94
2023-01-31T22:59:54.341Z,5.82
2023-01-31T23:04:55.853Z,5.68
2023-01-31T23:09:57.254Z,5.65
2023-01-31T23:14:58.709Z,5.64
2023-01-31T23:20:00.179Z,5.66
2023-01-31T23:25:01.811Z,5.59
2023-01-31T23:30:05.702Z,5.58
2023-01-31T23:35:08.424Z,5.67
2023-01-31T23:40:10.907Z,5.68
2023-01-31T23:45:12.590Z,5.65
2023-01-31T23:50:14.002Z,5.70
2023-01-31T23:55:15.603Z,5.76
